sensor_id;sensor_type;location;lat;lon;timestamp;pressure;altitude;pressure_sealevel;temperature;humidity
46638;BME280;32365;46.938;7.390;2022-10-30T07:29:50;95801.78;;;9.80;98.89
46638;BME280;32365;46.938;7.390;2022-10-30T07:32:19;95799.94;;;10.31;95.04
46638;BME280;32365;46.938;7.390;2022-10-30T07:34:46;95805.56;;;10.65;93.45
46638;BME280;32365;46.938;7.390;2022-10-30T07:37:12;95808.44;;;10.75;92.83
46638;BME280;32365;46.938;7.390;2022-10-30T07:39:39;95813.91;;;10.86;91.79
46638;BME280;32365;46.938;7.390;2022-10-30T07:42:05;95807.25;;;10.90;91.56
46638;BME280;32365;46.938;7.390;2022-10-30T07:44:31;95806.66;;;11.06;92.07
46638;BME280;32365;46.938;7.390;2022-10-30T07:46:59;95816.59;;;11.09;92.15
46638;BME280;32365;46.938;7.390;2022-10-30T07:49:26;95815.41;;;11.24;91.84
46638;BME280;32365;46.938;7.390;2022-10-30T07:51:52;95816.13;;;11.43;92.50
46638;BME280;32365;46.938;7.390;2022-10-30T07:54:19;95813.31;;;11.45;92.00
46638;BME280;32365;46.938;7.390;2022-10-30T07:56:45;95814.22;;;11.50;91.12
46638;BME280;32365;46.938;7.390;2022-10-30T07:59:12;95823.50;;;11.58;90.10
46638;BME280;32365;46.938;7.390;2022-10-30T08:01:39;95821.25;;;11.74;90.98
46638;BME280;32365;46.938;7.390;2022-10-30T08:04:07;95820.88;;;12.12;90.00
46638;BME280;32365;46.938;7.390;2022-10-30T08:06:35;95820.63;;;12.14;87.96
46638;BME280;32365;46.938;7.390;2022-10-30T08:09:01;95827.06;;;12.11;88.27
46638;BME280;32365;46.938;7.390;2022-10-30T08:11:28;95823.78;;;12.28;88.38
46638;BME280;32365;46.938;7.390;2022-10-30T08:13:54;95827.72;;;12.42;nan
46638;BME280;32365;46.938;7.390;2022-10-30T08:16:21;95834.50;;;12.55;88.19
46638;BME280;32365;46.938;7.390;2022-10-30T08:18:47;95836.19;;;12.50;86.60
46638;BME280;32365;46.938;7.390;2022-10-30T08:21:15;95830.00;;;12.51;87.23
46638;BME280;32365;46.938;7.390;2022-10-30T08:23:42;95831.59;;;12.92;83.84
46638;BME280;32365;46.938;7.390;2022-10-30T08:26:08;95820.97;;;13.23;82.38
46638;BME280;32365;46.938;7.390;2022-10-30T08:28:35;95831.28;;;13.35;82.36
46638;BME280;32365;46.938;7.390;2022-10-30T08:31:02;95820.25;;;13.91;80.96
46638;BME280;32365;46.938;7.390;2022-10-30T08:33:30;95822.53;;;13.87;79.70
46638;BME280;32365;46.938;7.390;2022-10-30T08:35:57;95822.13;;;13.95;80.16
46638;BME280;32365;46.938;7.390;2022-10-30T08:38:25;95821.19;;;14.01;80.48
46638;BME280;32365;46.938;7.390;2022-10-30T08:40:52;95820.34;;;14.35;80.53
46638;BME280;32365;46.938;7.390;2022-10-30T08:43:19;95827.63;;;14.72;77.39
46638;BME280;32365;46.938;7.390;2022-10-30T08:45:46;95818.72;;;15.45;73.95
46638;BME280;32365;46.938;7.390;2022-10-30T08:48:13;95817.81;;;15.34;73.86
46638;BME280;32365;46.938;7.390;2022-10-30T08:50:40;95814.00;;;16.12;67.64
46638;BME280;32365;46.938;7.390;2022-10-30T08:53:08;95822.72;;;16.23;68.68
46638;BME280;32365;46.938;7.390;2022-10-30T08:55:36;95823.44;;;16.13;68.52
46638;BME280;32365;46.938;7.390;2022-10-30T08:58:03;95820.22;;;16.01;69.86
46638;BME280;32365;46.938;7.390;2022-10-30T09:00:29;95817.91;;;17.21;63.63
46638;BME280;32365;46.938;7.390;2022-10-30T09:02:56;95819.31;;;16.76;62.80
46638;BME280;32365;46.938;7.390;2022-10-30T09:05:23;95823.53;;;16.87;61.19
46638;BME280;32365;46.938;7.390;2022-10-30T09:07:49;95819.28;;;16.66;67.59
46638;BME280;32365;46.938;7.390;2022-10-30T09:10:20;95824.69;;;16.06;64.37
46638;BME280;32365;46.938;7.390;2022-10-30T09:12:48;95820.03;;;16.61;63.09
46638;BME280;32365;46.938;7.390;2022-10-30T09:15:18;95813.50;;;17.53;60.52
46638;BME280;32365;46.938;7.390;2022-10-30T09:17:45;95815.56;;;18.18;62.06
46638;BME280;32365;46.938;7.390;2022-10-30T09:20:11;95809.94;;;18.66;58.95
46638;BME280;32365;46.938;7.390;2022-10-30T09:22:38;95806.97;;;17.97;61.10
46638;BME280;32365;46.938;7.390;2022-10-30T09:25:05;95822.06;;;18.36;58.83
46638;BME280;32365;46.938;7.390;2022-10-30T09:27:35;95802.75;;;17.96;60.89
46638;BME280;32365;46.938;7.390;2022-10-30T09:30:04;95813.75;;;17.67;63.17
46638;BME280;32365;46.938;7.390;2022-10-30T09:32:30;95801.63;;;18.38;58.96
46638;BME280;32365;46.938;7.390;2022-10-30T09:34:57;95808.25;;;18.96;53.73
46638;BME280;32365;46.938;7.390;2022-10-30T09:37:23;95816.13;;;18.91;54.44
46638;BME280;32365;46.938;7.390;2022-10-30T09:39:50;95808.53;;;18.95;57.81
46638;BME280;32365;46.938;7.390;2022-10-30T09:42:24;95802.06;;;18.61;59.83
46638;BME280;32365;46.938;7.390;2022-10-30T09:45:01;95803.88;;;19.26;54.49
46638;BME280;32365;46.938;7.390;2022-10-30T09:47:33;95808.50;;;19.00;54.82
46638;BME280;32365;46.938;7.390;2022-10-30T09:50:06;95805.53;;;18.51;57.96
46638;BME280;32365;46.938;7.390;2022-10-30T09:52:41;95815.34;;;17.73;60.42
46638;BME280;32365;46.938;7.390;2022-10-30T09:55:19;95815.25;;;18.40;63.97
46638;BME280;32365;46.938;7.390;2022-10-30T09:57:53;95808.28;;;17.99;60.34
46638;BME280;32365;46.938;7.390;2022-10-30T10:00:23;95804.97;;;18.54;59.21
46638;BME280;32365;46.938;7.390;2022-10-30T10:03:01;95813.50;;;18.91;61.24
46638;BME280;32365;46.938;7.390;2022-10-30T10:05:33;95808.47;;;19.05;60.14
46638;BME280;32365;46.938;7.390;2022-10-30T10:08:03;95808.34;;;19.26;56.48
46638;BME280;32365;46.938;7.390;2022-10-30T10:10:34;95801.97;;;19.37;56.89
46638;BME280;32365;46.938;7.390;2022-10-30T10:13:02;95805.16;;;20.03;55.49
46638;BME280;32365;46.938;7.390;2022-10-30T10:15:35;95805.59;;;20.10;52.64
46638;BME280;32365;46.938;7.390;2022-10-30T10:18:06;95808.81;;;20.32;50.99
46638;BME280;32365;46.938;7.390;2022-10-30T10:20:38;95811.28;;;21.86;47.97
46638;BME280;32365;46.938;7.390;2022-10-30T10:23:10;95801.56;;;21.48;48.95
46638;BME280;32365;46.938;7.390;2022-10-30T10:25:39;95808.28;;;21.21;49.36
46638;BME280;32365;46.938;7.390;2022-10-30T10:28:11;95807.25;;;20.55;52.74
46638;BME280;32365;46.938;7.390;2022-10-30T10:30:44;95808.84;;;21.18;51.82
46638;BME280;32365;46.938;7.390;2022-10-30T10:33:25;95809.34;;;21.20;49.97
46638;BME280;32365;46.938;7.390;2022-10-30T10:36:01;95810.81;;;20.40;50.40
46638;BME280;32365;46.938;7.390;2022-10-30T10:38:34;95800.81;;;20.18;52.70
46638;BME280;32365;46.938;7.390;2022-10-30T10:41:05;95805.34;;;20.12;52.28
46638;BME280;32365;46.938;7.390;2022-10-30T10:43:40;95801.84;;;21.47;50.12
46638;BME280;32365;46.938;7.390;2022-10-30T10:46:23;95798.47;;;21.79;47.69
46638;BME280;32365;46.938;7.390;2022-10-30T10:48:57;95802.88;;;21.32;47.89
46638;BME280;32365;46.938;7.390;2022-10-30T10:51:30;95796.75;;;21.89;47.60
46638;BME280;32365;46.938;7.390;2022-10-30T10:53:59;95793.59;;;22.75;43.80
46638;BME280;32365;46.938;7.390;2022-10-30T10:56:28;95792.97;;;22.09;49.86
46638;BME280;32365;46.938;7.390;2022-10-30T10:58:57;95787.44;;;22.66;45.66
46638;BME280;32365;46.938;7.390;2022-10-30T11:01:31;95787.81;;;22.73;45.79
46638;BME280;32365;46.938;7.390;2022-10-30T11:04:00;95790.78;;;21.83;48.65
46638;BME280;32365;46.938;7.390;2022-10-30T11:06:30;95804.63;;;21.56;50.32
46638;BME280;32365;46.938;7.390;2022-10-30T11:08:59;95789.25;;;23.30;44.83
46638;BME280;32365;46.938;7.390;2022-10-30T11:11:27;95782.59;;;24.50;39.76
46638;BME280;32365;46.938;7.390;2022-10-30T11:13:53;95789.28;;;24.07;41.79
46638;BME280;32365;46.938;7.390;2022-10-30T11:16:23;95781.38;;;24.16;42.56
46638;BME280;32365;46.938;7.390;2022-10-30T11:18:52;95784.84;;;23.94;45.32
46638;BME280;32365;46.938;7.390;2022-10-30T11:21:22;95780.75;;;23.33;47.14
46638;BME280;32365;46.938;7.390;2022-10-30T11:23:48;95780.97;;;23.46;44.87
46638;BME280;32365;46.938;7.390;2022-10-30T11:26:25;95775.28;;;23.30;46.38
46638;BME280;32365;46.938;7.390;2022-10-30T11:28:54;95770.53;;;24.26;41.33
46638;BME280;32365;46.938;7.390;2022-10-30T11:31:22;95778.66;;;25.14;41.78
46638;BME280;32365;46.938;7.390;2022-10-30T11:33:51;95777.63;;;25.98;39.37
46638;BME280;32365;46.938;7.390;2022-10-30T11:36:20;95774.81;;;24.45;40.43
46638;BME280;32365;46.938;7.390;2022-10-30T11:38:48;95768.84;;;24.31;42.38
46638;BME280;32365;46.938;7.390;2022-10-30T11:41:15;95770.41;;;24.98;38.66
46638;BME280;32365;46.938;7.390;2022-10-30T11:43:42;95764.03;;;25.43;36.83
46638;BME280;32365;46.938;7.390;2022-10-30T11:46:10;95759.25;;;26.62;34.62
46638;BME280;32365;46.938;7.390;2022-10-30T11:48:38;95753.78;;;26.67;33.56
46638;BME280;32365;46.938;7.390;2022-10-30T11:51:05;95752.66;;;24.81;39.08
46638;BME280;32365;46.938;7.390;2022-10-30T11:53:32;95752.03;;;25.55;38.16
46638;BME280;32365;46.938;7.390;2022-10-30T11:56:00;95755.00;;;26.01;35.55
46638;BME280;32365;46.938;7.390;2022-10-30T11:58:28;95751.34;;;26.23;36.03
46638;BME280;32365;46.938;7.390;2022-10-30T12:00:59;95752.97;;;24.97;39.37
46638;BME280;32365;46.938;7.390;2022-10-30T12:03:27;95758.78;;;24.50;39.43
46638;BME280;32365;46.938;7.390;2022-10-30T12:06:05;95748.25;;;24.19;40.62
46638;BME280;32365;46.938;7.390;2022-10-30T12:08:32;95752.81;;;24.36;40.06
46638;BME280;32365;46.938;7.390;2022-10-30T12:10:59;95742.91;;;24.59;39.38
46638;BME280;32365;46.938;7.390;2022-10-30T12:13:30;95743.84;;;24.54;37.26
46638;BME280;32365;46.938;7.390;2022-10-30T12:16:04;95744.41;;;23.93;42.21
46638;BME280;32365;46.938;7.390;2022-10-30T12:18:31;95736.63;;;24.28;40.48
46638;BME280;32365;46.938;7.390;2022-10-30T12:20:58;95740.16;;;24.73;43.16
46638;BME280;32365;46.938;7.390;2022-10-30T12:23:26;95730.63;;;26.16;37.71
46638;BME280;32365;46.938;7.390;2022-10-30T12:25:54;95726.31;;;25.29;40.75
46638;BME280;32365;46.938;7.390;2022-10-30T12:28:21;95731.59;;;25.38;39.39
46638;BME280;32365;46.938;7.390;2022-10-30T12:30:51;95731.38;;;24.46;41.60
46638;BME280;32365;46.938;7.390;2022-10-30T12:33:20;95724.81;;;25.84;40.64
46638;BME280;32365;46.938;7.390;2022-10-30T12:35:48;95728.16;;;24.67;41.31
46638;BME280;32365;46.938;7.390;2022-10-30T12:38:20;95735.34;;;25.10;42.01
46638;BME280;32365;46.938;7.390;2022-10-30T12:40:50;95722.38;;;25.35;39.40
46638;BME280;32365;46.938;7.390;2022-10-30T12:43:22;95718.78;;;26.05;38.47
46638;BME280;32365;46.938;7.390;2022-10-30T12:45:53;95725.47;;;24.49;42.53
46638;BME280;32365;46.938;7.390;2022-10-30T12:48:21;95721.78;;;25.20;43.14
46638;BME280;32365;46.938;7.390;2022-10-30T12:50:54;95723.38;;;25.04;42.40
46638;BME280;32365;46.938;7.390;2022-10-30T12:53:24;95721.47;;;25.04;42.00
46638;BME280;32365;46.938;7.390;2022-10-30T12:55:54;95716.66;;;24.98;43.29
46638;BME280;32365;46.938;7.390;2022-10-30T12:58:25;95712.38;;;26.06;42.44
46638;BME280;32365;46.938;7.390;2022-10-30T13:00:55;95706.69;;;26.76;39.81
46638;BME280;32365;46.938;7.390;2022-10-30T13:03:25;95706.53;;;24.73;43.49
46638;BME280;32365;46.938;7.390;2022-10-30T13:05:54;95709.56;;;24.32;45.53
46638;BME280;32365;46.938;7.390;2022-10-30T13:08:24;95713.75;;;24.24;45.59
46638;BME280;32365;46.938;7.390;2022-10-30T13:10:52;95699.72;;;22.83;48.40
46638;BME280;32365;46.938;7.390;2022-10-30T13:13:19;95710.31;;;23.06;48.19
46638;BME280;32365;46.938;7.390;2022-10-30T13:15:47;95698.69;;;23.30;48.61
46638;BME280;32365;46.938;7.390;2022-10-30T13:18:16;95696.06;;;23.61;47.97
46638;BME280;32365;46.938;7.390;2022-10-30T13:20:51;95697.81;;;24.06;46.99
46638;BME280;32365;46.938;7.390;2022-10-30T13:23:22;95697.41;;;23.90;46.48
46638;BME280;32365;46.938;7.390;2022-10-30T13:25:54;95693.28;;;23.98;46.73
46638;BME280;32365;46.938;7.390;2022-10-30T13:28:26;95699.09;;;23.23;48.46
46638;BME280;32365;46.938;7.390;2022-10-30T13:30:56;95694.06;;;22.76;49.38
46638;BME280;32365;46.938;7.390;2022-10-30T13:33:26;95695.41;;;22.51;49.23
46638;BME280;32365;46.938;7.390;2022-10-30T13:35:58;95691.28;;;21.61;52.48
46638;BME280;32365;46.938;7.390;2022-10-30T13:38:33;95689.72;;;21.60;53.82
46638;BME280;32365;46.938;7.390;2022-10-30T13:41:05;95691.63;;;21.87;52.96
46638;BME280;32365;46.938;7.390;2022-10-30T13:43:34;95692.97;;;21.71;53.53
46638;BME280;32365;46.938;7.390;2022-10-30T13:48:52;95687.56;;;21.62;54.99
46638;BME280;32365;46.938;7.390;2022-10-30T13:51:28;95693.56;;;22.23;49.29
46638;BME280;32365;46.938;7.390;2022-10-30T13:54:00;95680.84;;;21.83;51.81
46638;BME280;32365;46.938;7.390;2022-10-30T13:56:28;95679.19;;;20.94;54.51
46638;BME280;32365;46.938;7.390;2022-10-30T13:58:56;95678.44;;;21.07;54.64
46638;BME280;32365;46.938;7.390;2022-10-30T14:01:24;95678.50;;;21.02;53.24
46638;BME280;32365;46.938;7.390;2022-10-30T14:03:58;95677.88;;;20.53;53.71
46638;BME280;32365;46.938;7.390;2022-10-30T14:06:30;95677.53;;;20.59;53.05
46638;BME280;32365;46.938;7.390;2022-10-30T14:09:03;95678.09;;;20.56;52.61
46638;BME280;32365;46.938;7.390;2022-10-30T14:11:31;95676.38;;;20.46;55.13
46638;BME280;32365;46.938;7.390;2022-10-30T14:14:02;95673.94;;;20.74;52.33
46638;BME280;32365;46.938;7.390;2022-10-30T14:16:30;95671.72;;;20.63;51.71
46638;BME280;32365;46.938;7.390;2022-10-30T14:18:59;95670.50;;;20.74;52.57
46638;BME280;32365;46.938;7.390;2022-10-30T14:21:42;95675.50;;;20.75;52.43
46638;BME280;32365;46.938;7.390;2022-10-30T14:24:10;95675.59;;;20.46;52.86
46638;BME280;32365;46.938;7.390;2022-10-30T14:26:37;95669.84;;;20.01;55.22
46638;BME280;32365;46.938;7.390;2022-10-30T14:31:50;95675.66;;;19.97;56.08
46638;BME280;32365;46.938;7.390;2022-10-30T14:36:59;95667.50;;;19.69;56.57
46638;BME280;32365;46.938;7.390;2022-10-30T14:39:26;95671.69;;;19.46;56.19
46638;BME280;32365;46.938;7.390;2022-10-30T14:41:55;95670.75;;;19.61;56.58
46638;BME280;32365;46.938;7.390;2022-10-30T14:44:38;95670.06;;;19.50;57.24
46638;BME280;32365;46.938;7.390;2022-10-30T14:47:19;95671.38;;;19.53;55.40
46638;BME280;32365;46.938;7.390;2022-10-30T14:49:49;95663.09;;;19.41;57.79
46638;BME280;32365;46.938;7.390;2022-10-30T14:52:29;95666.25;;;19.37;57.98
46638;BME280;32365;46.938;7.390;2022-10-30T14:54:59;95664.81;;;19.21;60.00
46638;BME280;32365;46.938;7.390;2022-10-30T14:57:44;95665.03;;;19.25;59.80
46638;BME280;32365;46.938;7.390;2022-10-30T15:03:09;95661.31;;;19.01;61.83
46638;BME280;32365;46.938;7.390;2022-10-30T15:05:43;95655.59;;;18.94;60.76
46638;BME280;32365;46.938;7.390;2022-10-30T15:08:18;95660.31;;;18.92;62.66
46638;BME280;32365;46.938;7.390;2022-10-30T15:10:50;95661.91;;;18.83;63.15
46638;BME280;32365;46.938;7.390;2022-10-30T15:13:23;95660.97;;;18.68;63.19
46638;BME280;32365;46.938;7.390;2022-10-30T15:15:55;95657.41;;;18.49;65.00
46638;BME280;32365;46.938;7.390;2022-10-30T15:18:22;95664.09;;;18.70;64.42
46638;BME280;32365;46.938;7.390;2022-10-30T15:20:48;95662.88;;;18.57;66.48
46638;BME280;32365;46.938;7.390;2022-10-30T15:23:17;95661.38;;;18.41;68.74
46638;BME280;32365;46.938;7.390;2022-10-30T15:25:48;95662.81;;;18.12;69.98
46638;BME280;32365;46.938;7.390;2022-10-30T15:28:15;95674.16;;;17.97;70.00
46638;BME280;32365;46.938;7.390;2022-10-30T15:30:56;95669.19;;;17.85;69.44
46638;BME280;32365;46.938;7.390;2022-10-30T15:33:23;95671.84;;;17.70;71.17
46638;BME280;32365;46.938;7.390;2022-10-30T15:35:49;95670.84;;;17.61;72.00
46638;BME280;32365;46.938;7.390;2022-10-30T15:38:17;95660.34;;;17.56;71.55
46638;BME280;32365;46.938;7.390;2022-10-30T15:40:44;95661.41;;;17.39;70.67
46638;BME280;32365;46.938;7.390;2022-10-30T15:43:11;95656.97;;;17.34;71.95
46638;BME280;32365;46.938;7.390;2022-10-30T15:45:39;95665.63;;;17.35;71.50
46638;BME280;32365;46.938;7.390;2022-10-30T15:48:07;95664.31;;;17.32;72.43
46638;BME280;32365;46.938;7.390;2022-10-30T15:50:36;95665.91;;;17.13;73.13
46638;BME280;32365;46.938;7.390;2022-10-30T15:53:13;95662.75;;;17.00;73.04
46638;BME280;32365;46.938;7.390;2022-10-30T15:55:41;95662.47;;;16.86;73.81
46638;BME280;32365;46.938;7.390;2022-10-30T15:58:10;95664.28;;;16.75;74.91
46638;BME280;32365;46.938;7.390;2022-10-30T16:00:40;95658.28;;;16.75;72.82
46638;BME280;32365;46.938;7.390;2022-10-30T16:03:14;95665.22;;;16.38;74.50
46638;BME280;32365;46.938;7.390;2022-10-30T16:05:41;95669.09;;;16.15;79.54
46638;BME280;32365;46.938;7.390;2022-10-30T16:08:09;95665.09;;;15.97;78.44
46638;BME280;32365;46.938;7.390;2022-10-30T16:10:37;95665.50;;;15.78;79.38
46638;BME280;32365;46.938;7.390;2022-10-30T16:13:09;95674.25;;;15.57;77.42
46638;BME280;32365;46.938;7.390;2022-10-30T16:15:38;95668.72;;;15.48;78.08
46638;BME280;32365;46.938;7.390;2022-10-30T16:18:06;95670.75;;;15.41;79.59
46638;BME280;32365;46.938;7.390;2022-10-30T16:20:33;95673.03;;;15.27;82.51
46638;BME280;32365;46.938;7.390;2022-10-30T16:23:00;95674.75;;;15.16;83.15
46638;BME280;32365;46.938;7.390;2022-10-30T16:25:27;95681.88;;;14.93;83.61
46638;BME280;32365;46.938;7.390;2022-10-30T16:27:55;95675.97;;;14.75;85.30
46638;BME280;32365;46.938;7.390;2022-10-30T16:30:23;95686.75;;;14.62;84.26
46638;BME280;32365;46.938;7.390;2022-10-30T16:32:53;95685.81;;;14.68;83.34
46638;BME280;32365;46.938;7.390;2022-10-30T16:35:20;95681.25;;;14.81;81.90
46638;BME280;32365;46.938;7.390;2022-10-30T16:37:48;95680.50;;;14.63;83.18
46638;BME280;32365;46.938;7.390;2022-10-30T16:40:16;95692.88;;;14.51;85.28
46638;BME280;32365;46.938;7.390;2022-10-30T16:42:44;95690.06;;;14.30;86.58
46638;BME280;32365;46.938;7.390;2022-10-30T16:47:58;95704.81;;;14.19;87.95
46638;BME280;32365;46.938;7.390;2022-10-30T16:50:28;95699.09;;;14.22;88.01
46638;BME280;32365;46.938;7.390;2022-10-30T16:52:55;95696.31;;;14.29;87.58
46638;BME280;32365;46.938;7.390;2022-10-30T16:55:29;95693.88;;;14.22;88.08
46638;BME280;32365;46.938;7.390;2022-10-30T16:57:56;95692.56;;;14.20;88.81
46638;BME280;32365;46.938;7.390;2022-10-30T17:00:24;95694.78;;;14.11;89.50
46638;BME280;32365;46.938;7.390;2022-10-30T17:02:51;95693.91;;;14.00;90.48
46638;BME280;32365;46.938;7.390;2022-10-30T17:05:21;95697.28;;;14.00;91.68
46638;BME280;32365;46.938;7.390;2022-10-30T17:07:52;95704.06;;;14.01;92.65
46638;BME280;32365;46.938;7.390;2022-10-30T17:10:29;95704.41;;;13.88;92.45
46638;BME280;32365;46.938;7.390;2022-10-30T17:15:38;95707.50;;;14.07;91.43
46638;BME280;32365;46.938;7.390;2022-10-30T17:18:08;95707.88;;;14.16;91.85
46638;BME280;32365;46.938;7.390;2022-10-30T17:20:36;95712.50;;;13.92;90.88
46638;BME280;32365;46.938;7.390;2022-10-30T17:23:04;95721.94;;;13.76;92.07
46638;BME280;32365;46.938;7.390;2022-10-30T17:25:33;95722.25;;;13.62;92.09
46638;BME280;32365;46.938;7.390;2022-10-30T17:28:00;95721.34;;;13.51;92.48
46638;BME280;32365;46.938;7.390;2022-10-30T17:30:31;95725.56;;;13.58;95.73
46638;BME280;32365;46.938;7.390;2022-10-30T17:32:58;95728.34;;;13.51;94.51
46638;BME280;32365;46.938;7.390;2022-10-30T17:35:25;95734.97;;;13.42;94.52
46638;BME280;32365;46.938;7.390;2022-10-30T17:37:53;95729.03;;;13.46;96.39
46638;BME280;32365;46.938;7.390;2022-10-30T17:40:20;95739.53;;;13.68;97.39
46638;BME280;32365;46.938;7.390;2022-10-30T17:42:46;95753.16;;;13.76;96.62
46638;BME280;32365;46.938;7.390;2022-10-30T17:45:14;95751.72;;;13.68;95.70
46638;BME280;32365;46.938;7.390;2022-10-30T17:47:41;95750.16;;;13.67;96.54
46638;BME280;32365;46.938;7.390;2022-10-30T17:50:08;95763.31;;;13.43;96.43
46638;BME280;32365;46.938;7.390;2022-10-30T17:52:34;95761.78;;;13.30;96.71
46638;BME280;32365;46.938;7.390;2022-10-30T17:55:03;95760.38;;;13.22;97.67
46638;BME280;32365;46.938;7.390;2022-10-30T17:57:34;95764.13;;;13.15;98.16
46638;BME280;32365;46.938;7.390;2022-10-30T18:00:00;95761.50;;;12.98;98.56
46638;BME280;32365;46.938;7.390;2022-10-30T18:02:27;95762.91;;;12.88;98.84
46638;BME280;32365;46.938;7.390;2022-10-30T18:04:53;95765.03;;;12.91;98.21
46638;BME280;32365;46.938;7.390;2022-10-30T18:07:20;95767.63;;;12.91;98.65
46638;BME280;32365;46.938;7.390;2022-10-30T18:09:47;95771.59;;;12.82;97.67
46638;BME280;32365;46.938;7.390;2022-10-30T18:12:15;95776.63;;;12.72;98.20
46638;BME280;32365;46.938;7.390;2022-10-30T18:14:43;95781.13;;;12.76;98.93
46638;BME280;32365;46.938;7.390;2022-10-30T18:17:10;95773.06;;;12.61;98.75
46638;BME280;32365;46.938;7.390;2022-10-30T18:19:37;95781.66;;;12.50;99.16
46638;BME280;32365;46.938;7.390;2022-10-30T18:22:03;95787.97;;;12.54;100.00
46638;BME280;32365;46.938;7.390;2022-10-30T18:24:30;95781.56;;;12.44;100.00
46638;BME280;32365;46.938;7.390;2022-10-30T18:26:56;95788.44;;;12.51;100.00
46638;BME280;32365;46.938;7.390;2022-10-30T18:29:24;95795.53;;;12.55;100.00
46638;BME280;32365;46.938;7.390;2022-10-30T18:31:51;95793.19;;;12.42;100.00
46638;BME280;32365;46.938;7.390;2022-10-30T18:34:17;95796.34;;;12.32;100.00
46638;BME280;32365;46.938;7.390;2022-10-30T18:36:45;95793.53;;;12.34;100.00
46638;BME280;32365;46.938;7.390;2022-10-30T18:39:12;95799.50;;;12.22;100.00
46638;BME280;32365;46.938;7.390;2022-10-30T18:41:39;95794.78;;;12.31;100.00
46638;BME280;32365;46.938;7.390;2022-10-30T18:44:06;95791.84;;;12.27;100.00
46638;BME280;32365;46.938;7.390;2022-10-30T18:46:36;95796.81;;;12.17;100.00
46638;BME280;32365;46.938;7.390;2022-10-30T18:49:03;95791.84;;;12.15;100.00
46638;BME280;32365;46.938;7.390;2022-10-30T18:51:29;95789.72;;;12.12;100.00
46638;BME280;32365;46.938;7.390;2022-10-30T18:53:56;95788.69;;;12.01;100.00
46638;BME280;32365;46.938;7.390;2022-10-30T18:56:23;95793.97;;;11.95;100.00
46638;BME280;32365;46.938;7.390;2022-10-30T18:58:50;95794.88;;;11.89;100.00
46638;BME280;32365;46.938;7.390;2022-10-30T19:01:17;95787.56;;;11.85;100.00
46638;BME280;32365;46.938;7.390;2022-10-30T19:03:45;95787.56;;;11.85;100.00
46638;BME280;32365;46.938;7.390;2022-10-30T19:06:13;95794.53;;;11.85;100.00
46638;BME280;32365;46.938;7.390;2022-10-30T19:08:39;95797.69;;;11.75;100.00
46638;BME280;32365;46.938;7.390;2022-10-30T19:11:07;95796.66;;;11.64;100.00
46638;BME280;32365;46.938;7.390;2022-10-30T19:13:35;95805.69;;;11.74;100.00
46638;BME280;32365;46.938;7.390;2022-10-30T19:16:02;95805.13;;;11.83;100.00
46638;BME280;32365;46.938;7.390;2022-10-30T19:18:29;95800.50;;;11.74;100.00
46638;BME280;32365;46.938;7.390;2022-10-30T19:20:58;95803.31;;;11.60;100.00
46638;BME280;32365;46.938;7.390;2022-10-30T19:23:24;95797.56;;;11.70;100.00
46638;BME280;32365;46.938;7.390;2022-10-30T19:25:51;95803.66;;;11.64;100.00
46638;BME280;32365;46.938;7.390;2022-10-30T19:28:18;95798.38;;;11.70;100.00
46638;BME280;32365;46.938;7.390;2022-10-30T19:30:46;95815.84;;;11.75;100.00
46638;BME280;32365;46.938;7.390;2022-10-30T19:33:15;95811.09;;;11.72;100.00
46638;BME280;32365;46.938;7.390;2022-10-30T19:35:41;95814.13;;;11.69;100.00
46638;BME280;32365;46.938;7.390;2022-10-30T19:38:09;95818.41;;;11.63;100.00
46638;BME280;32365;46.938;7.390;2022-10-30T19:40:37;95814.13;;;11.57;100.00
46638;BME280;32365;46.938;7.390;2022-10-30T19:43:03;95813.44;;;11.50;100.00
46638;BME280;32365;46.938;7.390;2022-10-30T19:45:31;95821.78;;;11.52;100.00
46638;BME280;32365;46.938;7.390;2022-10-30T19:47:58;95818.97;;;11.53;100.00
46638;BME280;32365;46.938;7.390;2022-10-30T19:50:26;95821.28;;;11.43;100.00
46638;BME280;32365;46.938;7.390;2022-10-30T19:52:54;95817.94;;;11.43;100.00
46638;BME280;32365;46.938;7.390;2022-10-30T19:55:23;95807.31;;;11.44;100.00
46638;BME280;32365;46.938;7.390;2022-10-30T19:57:50;95811.38;;;11.40;100.00
46638;BME280;32365;46.938;7.390;2022-10-30T20:00:17;95810.56;;;11.28;100.00
46638;BME280;32365;46.938;7.390;2022-10-30T20:02:44;95813.81;;;11.23;100.00
46638;BME280;32365;46.938;7.390;2022-10-30T20:05:12;95808.41;;;11.24;100.00
46638;BME280;32365;46.938;7.390;2022-10-30T20:07:39;95810.00;;;11.26;100.00
46638;BME280;32365;46.938;7.390;2022-10-30T20:10:13;95812.34;;;11.27;100.00
46638;BME280;32365;46.938;7.390;2022-10-30T20:12:41;95809.84;;;11.20;100.00
